sensor_id;sensor_type;location;lat;lon;timestamp;temperature;humidity
14095;DHT22;18096;48.142;16.290;2022-08-19T00:00:08;23.10;64.20
14095;DHT22;18096;48.142;16.290;2022-08-19T00:02:35;23.10;64.40
14095;DHT22;18096;48.142;16.290;2022-08-19T00:05:01;23.00;64.40
14095;DHT22;18096;48.142;16.290;2022-08-19T00:07:27;23.00;64.40
14095;DHT22;18096;48.142;16.290;2022-08-19T00:09:53;23.00;64.30
14095;DHT22;18096;48.142;16.290;2022-08-19T00:12:19;23.00;64.30
14095;DHT22;18096;48.142;16.290;2022-08-19T00:14:45;23.00;64.30
14095;DHT22;18096;48.142;16.290;2022-08-19T00:17:11;22.90;64.60
14095;DHT22;18096;48.142;16.290;2022-08-19T00:19:37;22.90;64.90
14095;DHT22;18096;48.142;16.290;2022-08-19T00:22:04;22.80;65.10
14095;DHT22;18096;48.142;16.290;2022-08-19T00:24:31;22.80;65.30
14095;DHT22;18096;48.142;16.290;2022-08-19T00:26:57;22.70;65.40
14095;DHT22;18096;48.142;16.290;2022-08-19T00:29:24;22.70;65.70
14095;DHT22;18096;48.142;16.290;2022-08-19T00:31:51;22.60;65.70
14095;DHT22;18096;48.142;16.290;2022-08-19T00:34:20;22.60;65.90
14095;DHT22;18096;48.142;16.290;2022-08-19T00:36:47;22.50;66.00
14095;DHT22;18096;48.142;16.290;2022-08-19T00:39:14;22.50;66.20
14095;DHT22;18096;48.142;16.290;2022-08-19T00:41:42;22.50;66.00
14095;DHT22;18096;48.142;16.290;2022-08-19T00:44:15;22.50;66.10
14095;DHT22;18096;48.142;16.290;2022-08-19T00:46:44;22.50;66.10
14095;DHT22;18096;48.142;16.290;2022-08-19T00:51:45;22.50;66.50
14095;DHT22;18096;48.142;16.290;2022-08-19T00:54:12;22.40;66.30
14095;DHT22;18096;48.142;16.290;2022-08-19T00:56:38;22.40;66.30
14095;DHT22;18096;48.142;16.290;2022-08-19T00:59:05;22.40;66.10
14095;DHT22;18096;48.142;16.290;2022-08-19T01:01:36;22.40;66.20
14095;DHT22;18096;48.142;16.290;2022-08-19T01:04:02;22.40;66.00
14095;DHT22;18096;48.142;16.290;2022-08-19T01:06:27;22.50;66.20
14095;DHT22;18096;48.142;16.290;2022-08-19T01:08:54;22.50;66.10
14095;DHT22;18096;48.142;16.290;2022-08-19T01:11:20;22.50;66.10
14095;DHT22;18096;48.142;16.290;2022-08-19T01:13:46;22.50;66.10
14095;DHT22;18096;48.142;16.290;2022-08-19T01:16:12;22.50;65.90
14095;DHT22;18096;48.142;16.290;2022-08-19T01:18:41;22.50;65.70
14095;DHT22;18096;48.142;16.290;2022-08-19T01:23:50;22.50;65.80
14095;DHT22;18096;48.142;16.290;2022-08-19T01:26:22;22.50;65.80
14095;DHT22;18096;48.142;16.290;2022-08-19T01:28:50;22.50;65.80
14095;DHT22;18096;48.142;16.290;2022-08-19T01:31:19;22.50;66.10
14095;DHT22;18096;48.142;16.290;2022-08-19T01:33:48;22.50;66.10
14095;DHT22;18096;48.142;16.290;2022-08-19T01:36:21;22.50;66.20
14095;DHT22;18096;48.142;16.290;2022-08-19T01:38:48;22.50;66.30
14095;DHT22;18096;48.142;16.290;2022-08-19T01:41:17;22.50;66.40
14095;DHT22;18096;48.142;16.290;2022-08-19T01:43:43;22.40;66.60
14095;DHT22;18096;48.142;16.290;2022-08-19T01:46:09;22.40;66.70
14095;DHT22;18096;48.142;16.290;2022-08-19T01:48:40;22.30;66.60
14095;DHT22;18096;48.142;16.290;2022-08-19T01:51:07;22.30;66.60
14095;DHT22;18096;48.142;16.290;2022-08-19T01:53:33;22.30;66.80
14095;DHT22;18096;48.142;16.290;2022-08-19T01:55:59;22.30;67.00
14095;DHT22;18096;48.142;16.290;2022-08-19T01:58:29;22.30;66.90
14095;DHT22;18096;48.142;16.290;2022-08-19T02:00:57;22.30;66.90
14095;DHT22;18096;48.142;16.290;2022-08-19T02:03:23;22.30;67.10
14095;DHT22;18096;48.142;16.290;2022-08-19T02:05:54;22.20;67.30
14095;DHT22;18096;48.142;16.290;2022-08-19T02:08:20;22.20;67.40
14095;DHT22;18096;48.142;16.290;2022-08-19T02:10:46;22.20;67.60
14095;DHT22;18096;48.142;16.290;2022-08-19T02:13:13;22.10;67.60
14095;DHT22;18096;48.142;16.290;2022-08-19T02:15:39;22.10;67.80
14095;DHT22;18096;48.142;16.290;2022-08-19T02:18:05;22.00;67.80
14095;DHT22;18096;48.142;16.290;2022-08-19T02:20:33;22.00;67.40
14095;DHT22;18096;48.142;16.290;2022-08-19T02:22:59;22.00;67.10
14095;DHT22;18096;48.142;16.290;2022-08-19T02:25:25;22.00;66.50
14095;DHT22;18096;48.142;16.290;2022-08-19T02:27:51;22.10;66.70
14095;DHT22;18096;48.142;16.290;2022-08-19T02:30:17;22.00;65.50
14095;DHT22;18096;48.142;16.290;2022-08-19T02:32:43;22.10;64.50
14095;DHT22;18096;48.142;16.290;2022-08-19T02:35:09;22.30;63.90
14095;DHT22;18096;48.142;16.290;2022-08-19T02:37:34;22.40;63.00
14095;DHT22;18096;48.142;16.290;2022-08-19T02:40:28;22.50;62.90
14095;DHT22;18096;48.142;16.290;2022-08-19T02:42:54;22.60;63.10
14095;DHT22;18096;48.142;16.290;2022-08-19T02:45:20;22.70;64.00
14095;DHT22;18096;48.142;16.290;2022-08-19T02:47:45;22.80;64.50
14095;DHT22;18096;48.142;16.290;2022-08-19T02:50:11;22.80;64.80
14095;DHT22;18096;48.142;16.290;2022-08-19T02:52:38;22.90;65.00
14095;DHT22;18096;48.142;16.290;2022-08-19T02:55:04;23.00;65.00
14095;DHT22;18096;48.142;16.290;2022-08-19T02:57:31;23.00;64.90
14095;DHT22;18096;48.142;16.290;2022-08-19T02:59:57;23.00;65.00
14095;DHT22;18096;48.142;16.290;2022-08-19T03:02:22;23.00;65.00
14095;DHT22;18096;48.142;16.290;2022-08-19T03:04:48;23.00;65.00
14095;DHT22;18096;48.142;16.290;2022-08-19T03:07:15;23.00;65.20
14095;DHT22;18096;48.142;16.290;2022-08-19T03:09:41;23.00;65.20
14095;DHT22;18096;48.142;16.290;2022-08-19T03:12:08;23.00;65.40
14095;DHT22;18096;48.142;16.290;2022-08-19T03:14:34;22.90;65.50
14095;DHT22;18096;48.142;16.290;2022-08-19T03:17:01;22.90;65.80
14095;DHT22;18096;48.142;16.290;2022-08-19T03:19:26;22.80;65.80
14095;DHT22;18096;48.142;16.290;2022-08-19T03:21:53;22.80;65.90
14095;DHT22;18096;48.142;16.290;2022-08-19T03:24:19;22.80;65.80
14095;DHT22;18096;48.142;16.290;2022-08-19T03:26:49;22.90;65.90
14095;DHT22;18096;48.142;16.290;2022-08-19T03:29:16;22.90;65.80
14095;DHT22;18096;48.142;16.290;2022-08-19T03:31:43;23.00;65.70
14095;DHT22;18096;48.142;16.290;2022-08-19T03:34:17;23.00;65.60
14095;DHT22;18096;48.142;16.290;2022-08-19T03:36:43;23.00;65.90
14095;DHT22;18096;48.142;16.290;2022-08-19T03:39:10;23.00;66.00
14095;DHT22;18096;48.142;16.290;2022-08-19T03:41:40;22.90;66.40
14095;DHT22;18096;48.142;16.290;2022-08-19T03:44:06;22.80;66.80
14095;DHT22;18096;48.142;16.290;2022-08-19T03:46:35;22.70;66.70
14095;DHT22;18096;48.142;16.290;2022-08-19T03:49:03;22.70;67.10
14095;DHT22;18096;48.142;16.290;2022-08-19T03:51:36;22.60;67.40
14095;DHT22;18096;48.142;16.290;2022-08-19T03:54:07;22.60;67.80
14095;DHT22;18096;48.142;16.290;2022-08-19T03:56:35;22.60;68.10
14095;DHT22;18096;48.142;16.290;2022-08-19T03:59:01;22.50;68.10
14095;DHT22;18096;48.142;16.290;2022-08-19T04:01:28;22.50;68.30
14095;DHT22;18096;48.142;16.290;2022-08-19T04:03:55;22.50;68.50
14095;DHT22;18096;48.142;16.290;2022-08-19T04:06:34;22.50;68.70
14095;DHT22;18096;48.142;16.290;2022-08-19T04:09:03;22.50;70.10
14095;DHT22;18096;48.142;16.290;2022-08-19T04:11:56;22.40;69.50
14095;DHT22;18096;48.142;16.290;2022-08-19T04:14:25;22.30;69.40
14095;DHT22;18096;48.142;16.290;2022-08-19T04:16:51;22.30;69.60
14095;DHT22;18096;48.142;16.290;2022-08-19T04:19:19;22.30;70.10
14095;DHT22;18096;48.142;16.290;2022-08-19T04:21:46;22.30;70.30
14095;DHT22;18096;48.142;16.290;2022-08-19T04:24:13;22.30;69.30
14095;DHT22;18096;48.142;16.290;2022-08-19T04:26:39;22.20;69.10
14095;DHT22;18096;48.142;16.290;2022-08-19T04:29:10;22.30;69.10
14095;DHT22;18096;48.142;16.290;2022-08-19T04:31:36;22.20;68.60
14095;DHT22;18096;48.142;16.290;2022-08-19T04:34:05;22.20;68.90
14095;DHT22;18096;48.142;16.290;2022-08-19T04:36:33;22.10;68.30
14095;DHT22;18096;48.142;16.290;2022-08-19T04:39:05;22.10;68.30
14095;DHT22;18096;48.142;16.290;2022-08-19T04:41:31;22.10;68.30
14095;DHT22;18096;48.142;16.290;2022-08-19T04:44:16;22.10;68.20
14095;DHT22;18096;48.142;16.290;2022-08-19T04:46:44;22.20;67.80
14095;DHT22;18096;48.142;16.290;2022-08-19T04:49:10;22.30;68.00
14095;DHT22;18096;48.142;16.290;2022-08-19T04:51:36;22.30;68.10
14095;DHT22;18096;48.142;16.290;2022-08-19T04:54:04;22.30;67.80
14095;DHT22;18096;48.142;16.290;2022-08-19T04:56:30;22.40;68.70
14095;DHT22;18096;48.142;16.290;2022-08-19T04:58:56;22.40;68.60
14095;DHT22;18096;48.142;16.290;2022-08-19T05:01:27;22.40;67.80
14095;DHT22;18096;48.142;16.290;2022-08-19T05:03:53;22.40;67.60
14095;DHT22;18096;48.142;16.290;2022-08-19T05:06:21;22.50;67.30
14095;DHT22;18096;48.142;16.290;2022-08-19T05:08:47;22.50;67.50
14095;DHT22;18096;48.142;16.290;2022-08-19T05:11:20;22.60;68.10
14095;DHT22;18096;48.142;16.290;2022-08-19T05:13:47;22.60;68.10
14095;DHT22;18096;48.142;16.290;2022-08-19T05:16:15;22.60;67.90
14095;DHT22;18096;48.142;16.290;2022-08-19T05:18:41;22.70;68.20
14095;DHT22;18096;48.142;16.290;2022-08-19T05:21:26;22.70;68.60
14095;DHT22;18096;48.142;16.290;2022-08-19T05:24:11;22.80;69.20
14095;DHT22;18096;48.142;16.290;2022-08-19T05:26:40;22.80;69.50
14095;DHT22;18096;48.142;16.290;2022-08-19T05:29:07;22.80;69.90
14095;DHT22;18096;48.142;16.290;2022-08-19T05:31:34;22.90;69.90
14095;DHT22;18096;48.142;16.290;2022-08-19T05:34:01;23.00;70.20
14095;DHT22;18096;48.142;16.290;2022-08-19T05:36:28;23.00;70.10
14095;DHT22;18096;48.142;16.290;2022-08-19T05:38:54;23.00;70.00
14095;DHT22;18096;48.142;16.290;2022-08-19T05:41:21;23.10;70.10
14095;DHT22;18096;48.142;16.290;2022-08-19T05:43:52;23.20;70.10
14095;DHT22;18096;48.142;16.290;2022-08-19T05:46:19;23.20;70.10
14095;DHT22;18096;48.142;16.290;2022-08-19T05:48:45;23.30;70.00
14095;DHT22;18096;48.142;16.290;2022-08-19T05:51:11;23.40;70.90
14095;DHT22;18096;48.142;16.290;2022-08-19T05:53:37;23.50;70.20
14095;DHT22;18096;48.142;16.290;2022-08-19T05:56:12;23.50;69.90
14095;DHT22;18096;48.142;16.290;2022-08-19T05:58:38;23.60;69.80
14095;DHT22;18096;48.142;16.290;2022-08-19T06:01:09;23.60;69.90
14095;DHT22;18096;48.142;16.290;2022-08-19T06:03:36;23.60;69.90
14095;DHT22;18096;48.142;16.290;2022-08-19T06:06:04;23.60;69.90
14095;DHT22;18096;48.142;16.290;2022-08-19T06:08:31;23.60;70.00
14095;DHT22;18096;48.142;16.290;2022-08-19T06:10:57;23.50;70.10
14095;DHT22;18096;48.142;16.290;2022-08-19T06:13:22;23.50;70.30
14095;DHT22;18096;48.142;16.290;2022-08-19T06:15:49;23.40;70.30
14095;DHT22;18096;48.142;16.290;2022-08-19T06:18:15;23.40;70.40
14095;DHT22;18096;48.142;16.290;2022-08-19T06:20:42;23.40;70.60
14095;DHT22;18096;48.142;16.290;2022-08-19T06:23:08;23.40;70.70
14095;DHT22;18096;48.142;16.290;2022-08-19T06:25:35;23.30;70.80
14095;DHT22;18096;48.142;16.290;2022-08-19T06:28:01;23.30;70.90
14095;DHT22;18096;48.142;16.290;2022-08-19T06:30:27;23.30;71.10
14095;DHT22;18096;48.142;16.290;2022-08-19T06:32:53;23.30;71.20
14095;DHT22;18096;48.142;16.290;2022-08-19T06:35:19;23.30;71.10
14095;DHT22;18096;48.142;16.290;2022-08-19T06:37:44;23.30;71.30
14095;DHT22;18096;48.142;16.290;2022-08-19T06:40:11;23.40;71.30
14095;DHT22;18096;48.142;16.290;2022-08-19T06:42:38;23.40;71.30
14095;DHT22;18096;48.142;16.290;2022-08-19T06:45:05;23.50;71.30
14095;DHT22;18096;48.142;16.290;2022-08-19T06:47:31;23.50;71.40
14095;DHT22;18096;48.142;16.290;2022-08-19T06:49:59;23.50;72.10
14095;DHT22;18096;48.142;16.290;2022-08-19T06:52:30;23.50;72.00
14095;DHT22;18096;48.142;16.290;2022-08-19T06:54:56;23.60;71.20
14095;DHT22;18096;48.142;16.290;2022-08-19T06:57:24;23.60;71.20
14095;DHT22;18096;48.142;16.290;2022-08-19T06:59:50;23.60;71.20
14095;DHT22;18096;48.142;16.290;2022-08-19T07:02:16;23.60;70.90
14095;DHT22;18096;48.142;16.290;2022-08-19T07:04:41;23.70;70.70
14095;DHT22;18096;48.142;16.290;2022-08-19T07:07:14;23.80;70.90
14095;DHT22;18096;48.142;16.290;2022-08-19T07:09:42;23.80;70.40
14095;DHT22;18096;48.142;16.290;2022-08-19T07:12:11;23.80;70.40
14095;DHT22;18096;48.142;16.290;2022-08-19T07:14:38;23.90;70.30
14095;DHT22;18096;48.142;16.290;2022-08-19T07:17:11;23.90;70.20
14095;DHT22;18096;48.142;16.290;2022-08-19T07:19:38;24.00;70.00
14095;DHT22;18096;48.142;16.290;2022-08-19T07:22:05;24.00;69.80
14095;DHT22;18096;48.142;16.290;2022-08-19T07:24:32;24.10;69.80
14095;DHT22;18096;48.142;16.290;2022-08-19T07:27:00;24.10;69.40
14095;DHT22;18096;48.142;16.290;2022-08-19T07:29:29;24.20;69.50
14095;DHT22;18096;48.142;16.290;2022-08-19T07:31:56;24.20;69.20
14095;DHT22;18096;48.142;16.290;2022-08-19T07:34:23;24.30;69.10
14095;DHT22;18096;48.142;16.290;2022-08-19T07:36:49;24.30;68.70
14095;DHT22;18096;48.142;16.290;2022-08-19T07:39:19;24.40;68.50
14095;DHT22;18096;48.142;16.290;2022-08-19T07:41:46;24.40;68.50
14095;DHT22;18096;48.142;16.290;2022-08-19T07:44:13;24.40;67.90
14095;DHT22;18096;48.142;16.290;2022-08-19T07:46:41;24.50;68.00
14095;DHT22;18096;48.142;16.290;2022-08-19T07:49:08;24.60;68.00
14095;DHT22;18096;48.142;16.290;2022-08-19T07:51:38;24.60;67.80
14095;DHT22;18096;48.142;16.290;2022-08-19T07:54:04;24.70;67.80
14095;DHT22;18096;48.142;16.290;2022-08-19T07:56:30;24.80;67.70
14095;DHT22;18096;48.142;16.290;2022-08-19T07:58:55;24.80;67.30
14095;DHT22;18096;48.142;16.290;2022-08-19T08:01:24;24.80;67.00
14095;DHT22;18096;48.142;16.290;2022-08-19T08:03:51;24.90;66.60
14095;DHT22;18096;48.142;16.290;2022-08-19T08:06:36;25.00;66.40
14095;DHT22;18096;48.142;16.290;2022-08-19T08:09:24;25.00;65.80
14095;DHT22;18096;48.142;16.290;2022-08-19T08:11:56;25.10;65.60
14095;DHT22;18096;48.142;16.290;2022-08-19T08:17:10;25.20;65.20
14095;DHT22;18096;48.142;16.290;2022-08-19T08:19:36;25.30;65.10
14095;DHT22;18096;48.142;16.290;2022-08-19T08:22:03;25.40;64.60
14095;DHT22;18096;48.142;16.290;2022-08-19T08:24:32;25.40;64.40
14095;DHT22;18096;48.142;16.290;2022-08-19T08:26:59;25.50;64.30
14095;DHT22;18096;48.142;16.290;2022-08-19T08:29:27;25.50;63.80
14095;DHT22;18096;48.142;16.290;2022-08-19T08:31:53;25.60;63.50
14095;DHT22;18096;48.142;16.290;2022-08-19T08:34:19;25.60;63.40
14095;DHT22;18096;48.142;16.290;2022-08-19T08:36:46;25.70;63.60
14095;DHT22;18096;48.142;16.290;2022-08-19T08:39:13;25.80;63.50
14095;DHT22;18096;48.142;16.290;2022-08-19T08:41:47;25.80;63.10
14095;DHT22;18096;48.142;16.290;2022-08-19T08:44:22;25.90;62.60
14095;DHT22;18096;48.142;16.290;2022-08-19T08:46:55;26.00;62.90
14095;DHT22;18096;48.142;16.290;2022-08-19T08:52:06;26.00;62.10
14095;DHT22;18096;48.142;16.290;2022-08-19T08:54:44;26.00;62.10
14095;DHT22;18096;48.142;16.290;2022-08-19T08:57:15;26.10;61.90
14095;DHT22;18096;48.142;16.290;2022-08-19T08:59:46;26.20;62.60
14095;DHT22;18096;48.142;16.290;2022-08-19T09:02:17;26.20;63.30
14095;DHT22;18096;48.142;16.290;2022-08-19T09:04:43;26.30;63.60
14095;DHT22;18096;48.142;16.290;2022-08-19T09:08:00;26.30;63.50
14095;DHT22;18096;48.142;16.290;2022-08-19T09:10:39;26.40;63.10
14095;DHT22;18096;48.142;16.290;2022-08-19T09:16:19;26.40;62.60
14095;DHT22;18096;48.142;16.290;2022-08-19T09:18:49;26.40;61.90
14095;DHT22;18096;48.142;16.290;2022-08-19T09:21:17;26.50;60.80
14095;DHT22;18096;48.142;16.290;2022-08-19T09:23:44;26.50;60.70
14095;DHT22;18096;48.142;16.290;2022-08-19T09:26:12;26.60;60.00
14095;DHT22;18096;48.142;16.290;2022-08-19T09:28:40;26.60;60.10
14095;DHT22;18096;48.142;16.290;2022-08-19T09:31:29;26.60;60.10
14095;DHT22;18096;48.142;16.290;2022-08-19T09:33:55;26.60;60.20
14095;DHT22;18096;48.142;16.290;2022-08-19T09:36:26;26.70;60.40
14095;DHT22;18096;48.142;16.290;2022-08-19T09:38:55;26.70;60.10
14095;DHT22;18096;48.142;16.290;2022-08-19T09:41:22;26.70;59.70
14095;DHT22;18096;48.142;16.290;2022-08-19T09:43:52;26.80;60.20
14095;DHT22;18096;48.142;16.290;2022-08-19T09:46:19;26.80;60.30
14095;DHT22;18096;48.142;16.290;2022-08-19T09:48:47;26.90;59.80
14095;DHT22;18096;48.142;16.290;2022-08-19T09:51:16;26.90;59.90
14095;DHT22;18096;48.142;16.290;2022-08-19T09:53:44;27.00;59.70
14095;DHT22;18096;48.142;16.290;2022-08-19T09:56:10;27.00;59.80
14095;DHT22;18096;48.142;16.290;2022-08-19T09:58:37;27.10;60.00
14095;DHT22;18096;48.142;16.290;2022-08-19T10:01:03;27.10;59.50
14095;DHT22;18096;48.142;16.290;2022-08-19T10:03:31;27.10;59.70
14095;DHT22;18096;48.142;16.290;2022-08-19T10:05:58;27.10;59.40
14095;DHT22;18096;48.142;16.290;2022-08-19T10:08:30;27.10;59.10
14095;DHT22;18096;48.142;16.290;2022-08-19T10:10:56;27.10;58.40
14095;DHT22;18096;48.142;16.290;2022-08-19T10:13:24;27.20;57.80
14095;DHT22;18096;48.142;16.290;2022-08-19T10:15:53;27.20;58.00
14095;DHT22;18096;48.142;16.290;2022-08-19T10:18:20;27.30;57.90
14095;DHT22;18096;48.142;16.290;2022-08-19T10:20:47;27.30;57.80
14095;DHT22;18096;48.142;16.290;2022-08-19T10:23:13;27.30;58.00
14095;DHT22;18096;48.142;16.290;2022-08-19T10:25:40;27.40;59.10
14095;DHT22;18096;48.142;16.290;2022-08-19T10:28:07;27.30;58.90
14095;DHT22;18096;48.142;16.290;2022-08-19T10:30:33;27.30;59.30
14095;DHT22;18096;48.142;16.290;2022-08-19T10:33:00;27.30;59.80
14095;DHT22;18096;48.142;16.290;2022-08-19T10:35:26;27.20;61.40
14095;DHT22;18096;48.142;16.290;2022-08-19T10:37:55;27.20;62.50
14095;DHT22;18096;48.142;16.290;2022-08-19T10:40:24;27.10;63.30
14095;DHT22;18096;48.142;16.290;2022-08-19T10:42:50;27.00;64.30
14095;DHT22;18096;48.142;16.290;2022-08-19T10:45:16;27.00;63.90
14095;DHT22;18096;48.142;16.290;2022-08-19T10:47:42;26.90;63.80
14095;DHT22;18096;48.142;16.290;2022-08-19T10:50:07;26.80;63.40
14095;DHT22;18096;48.142;16.290;2022-08-19T10:52:52;26.70;63.20
14095;DHT22;18096;48.142;16.290;2022-08-19T10:55:23;26.70;64.50
14095;DHT22;18096;48.142;16.290;2022-08-19T10:58:16;26.60;66.50
14095;DHT22;18096;48.142;16.290;2022-08-19T11:00:43;26.50;67.80
14095;DHT22;18096;48.142;16.290;2022-08-19T11:03:15;26.40;68.90
14095;DHT22;18096;48.142;16.290;2022-08-19T11:05:41;26.30;70.30
14095;DHT22;18096;48.142;16.290;2022-08-19T11:08:08;26.20;69.60
14095;DHT22;18096;48.142;16.290;2022-08-19T11:10:37;26.20;70.00
14095;DHT22;18096;48.142;16.290;2022-08-19T11:13:06;26.10;68.50
14095;DHT22;18096;48.142;16.290;2022-08-19T11:15:31;26.10;69.10
14095;DHT22;18096;48.142;16.290;2022-08-19T11:17:58;26.00;69.30
14095;DHT22;18096;48.142;16.290;2022-08-19T11:20:24;26.00;69.20
14095;DHT22;18096;48.142;16.290;2022-08-19T11:22:52;26.00;69.40
14095;DHT22;18096;48.142;16.290;2022-08-19T11:25:19;25.90;69.50
14095;DHT22;18096;48.142;16.290;2022-08-19T11:27:45;25.90;69.70
14095;DHT22;18096;48.142;16.290;2022-08-19T11:30:16;25.90;68.60
14095;DHT22;18096;48.142;16.290;2022-08-19T11:32:41;25.90;67.30
14095;DHT22;18096;48.142;16.290;2022-08-19T11:35:07;26.00;67.20
14095;DHT22;18096;48.142;16.290;2022-08-19T11:37:33;26.00;67.20
14095;DHT22;18096;48.142;16.290;2022-08-19T11:40:03;26.20;66.30
14095;DHT22;18096;48.142;16.290;2022-08-19T11:42:29;26.30;66.10
14095;DHT22;18096;48.142;16.290;2022-08-19T11:45:13;26.30;65.00
14095;DHT22;18096;48.142;16.290;2022-08-19T11:47:39;26.40;64.80
14095;DHT22;18096;48.142;16.290;2022-08-19T11:50:05;26.40;64.40
14095;DHT22;18096;48.142;16.290;2022-08-19T11:52:31;26.40;64.00
14095;DHT22;18096;48.142;16.290;2022-08-19T11:54:56;26.50;62.50
14095;DHT22;18096;48.142;16.290;2022-08-19T11:57:22;26.60;62.10
14095;DHT22;18096;48.142;16.290;2022-08-19T11:59:50;26.70;62.10
14095;DHT22;18096;48.142;16.290;2022-08-19T12:02:16;26.70;61.50
14095;DHT22;18096;48.142;16.290;2022-08-19T12:04:42;26.80;61.30
14095;DHT22;18096;48.142;16.290;2022-08-19T12:07:08;26.80;61.10
14095;DHT22;18096;48.142;16.290;2022-08-19T12:09:33;26.80;60.40
14095;DHT22;18096;48.142;16.290;2022-08-19T12:12:00;26.90;60.50
14095;DHT22;18096;48.142;16.290;2022-08-19T12:14:27;26.90;60.50
14095;DHT22;18096;48.142;16.290;2022-08-19T12:16:53;27.00;60.30
14095;DHT22;18096;48.142;16.290;2022-08-19T12:19:19;27.00;60.10
14095;DHT22;18096;48.142;16.290;2022-08-19T12:21:44;27.10;59.50
14095;DHT22;18096;48.142;16.290;2022-08-19T12:24:10;27.10;59.30
14095;DHT22;18096;48.142;16.290;2022-08-19T12:26:36;27.20;58.90
14095;DHT22;18096;48.142;16.290;2022-08-19T12:29:02;27.20;58.80
14095;DHT22;18096;48.142;16.290;2022-08-19T12:31:29;27.30;58.80
14095;DHT22;18096;48.142;16.290;2022-08-19T12:33:55;27.30;59.20
14095;DHT22;18096;48.142;16.290;2022-08-19T12:36:21;27.30;59.20
14095;DHT22;18096;48.142;16.290;2022-08-19T12:38:49;27.30;59.20
14095;DHT22;18096;48.142;16.290;2022-08-19T12:41:16;27.30;59.10
14095;DHT22;18096;48.142;16.290;2022-08-19T12:43:43;27.30;59.30
14095;DHT22;18096;48.142;16.290;2022-08-19T12:46:10;27.30;59.60
14095;DHT22;18096;48.142;16.290;2022-08-19T12:48:36;27.20;59.40
14095;DHT22;18096;48.142;16.290;2022-08-19T12:51:07;27.20;59.70
14095;DHT22;18096;48.142;16.290;2022-08-19T12:53:34;27.10;60.10
14095;DHT22;18096;48.142;16.290;2022-08-19T12:56:01;27.10;62.00
14095;DHT22;18096;48.142;16.290;2022-08-19T12:58:27;27.10;63.10
14095;DHT22;18096;48.142;16.290;2022-08-19T13:00:53;27.00;63.70
14095;DHT22;18096;48.142;16.290;2022-08-19T13:03:19;26.90;63.90
14095;DHT22;18096;48.142;16.290;2022-08-19T13:05:45;26.90;64.20
14095;DHT22;18096;48.142;16.290;2022-08-19T13:08:10;26.80;64.20
14095;DHT22;18096;48.142;16.290;2022-08-19T13:10:37;26.70;64.30
14095;DHT22;18096;48.142;16.290;2022-08-19T13:13:06;26.70;64.90
14095;DHT22;18096;48.142;16.290;2022-08-19T13:15:37;26.60;64.80
14095;DHT22;18096;48.142;16.290;2022-08-19T13:18:05;26.50;65.30
14095;DHT22;18096;48.142;16.290;2022-08-19T13:20:31;26.40;65.50
14095;DHT22;18096;48.142;16.290;2022-08-19T13:22:56;26.40;65.20
14095;DHT22;18096;48.142;16.290;2022-08-19T13:25:23;26.30;65.10
14095;DHT22;18096;48.142;16.290;2022-08-19T13:27:49;26.30;65.30
14095;DHT22;18096;48.142;16.290;2022-08-19T13:30:17;26.30;64.60
14095;DHT22;18096;48.142;16.290;2022-08-19T13:33:02;26.30;64.60
14095;DHT22;18096;48.142;16.290;2022-08-19T13:35:38;26.30;64.60
14095;DHT22;18096;48.142;16.290;2022-08-19T13:38:04;26.30;64.50
14095;DHT22;18096;48.142;16.290;2022-08-19T13:40:31;26.30;65.00
14095;DHT22;18096;48.142;16.290;2022-08-19T13:42:59;26.30;65.40
14095;DHT22;18096;48.142;16.290;2022-08-19T13:45:27;26.20;65.60
14095;DHT22;18096;48.142;16.290;2022-08-19T13:47:54;26.30;65.60
14095;DHT22;18096;48.142;16.290;2022-08-19T13:50:23;26.20;66.00
14095;DHT22;18096;48.142;16.290;2022-08-19T13:52:54;26.20;66.00
14095;DHT22;18096;48.142;16.290;2022-08-19T13:55:20;26.30;65.70
14095;DHT22;18096;48.142;16.290;2022-08-19T13:57:46;26.30;65.40
14095;DHT22;18096;48.142;16.290;2022-08-19T14:00:16;26.30;65.20
14095;DHT22;18096;48.142;16.290;2022-08-19T14:02:46;26.30;65.30
14095;DHT22;18096;48.142;16.290;2022-08-19T14:05:15;26.30;64.70
14095;DHT22;18096;48.142;16.290;2022-08-19T14:07:41;26.30;64.70
14095;DHT22;18096;48.142;16.290;2022-08-19T14:10:09;26.30;64.20
14095;DHT22;18096;48.142;16.290;2022-08-19T14:12:35;26.30;64.00
14095;DHT22;18096;48.142;16.290;2022-08-19T14:15:03;26.40;63.60
14095;DHT22;18096;48.142;16.290;2022-08-19T14:17:29;26.40;62.60
14095;DHT22;18096;48.142;16.290;2022-08-19T14:19:59;26.50;62.10
14095;DHT22;18096;48.142;16.290;2022-08-19T14:22:26;26.50;61.90
14095;DHT22;18096;48.142;16.290;2022-08-19T14:24:51;26.60;62.00
14095;DHT22;18096;48.142;16.290;2022-08-19T14:27:17;26.70;62.40
14095;DHT22;18096;48.142;16.290;2022-08-19T14:29:43;26.70;62.30
14095;DHT22;18096;48.142;16.290;2022-08-19T14:32:09;26.80;62.40
14095;DHT22;18096;48.142;16.290;2022-08-19T14:34:35;26.90;62.10
14095;DHT22;18096;48.142;16.290;2022-08-19T14:37:02;27.00;60.50
14095;DHT22;18096;48.142;16.290;2022-08-19T14:39:28;27.00;59.00
14095;DHT22;18096;48.142;16.290;2022-08-19T14:41:54;27.10;57.80
14095;DHT22;18096;48.142;16.290;2022-08-19T14:44:19;27.00;55.80
14095;DHT22;18096;48.142;16.290;2022-08-19T14:46:45;27.10;55.20
14095;DHT22;18096;48.142;16.290;2022-08-19T14:49:11;27.10;55.50
14095;DHT22;18096;48.142;16.290;2022-08-19T14:51:37;27.10;55.80
14095;DHT22;18096;48.142;16.290;2022-08-19T14:54:02;27.10;55.90
14095;DHT22;18096;48.142;16.290;2022-08-19T14:56:29;27.10;55.50
14095;DHT22;18096;48.142;16.290;2022-08-19T14:58:56;27.10;55.40
14095;DHT22;18096;48.142;16.290;2022-08-19T15:01:25;27.10;55.20
14095;DHT22;18096;48.142;16.290;2022-08-19T15:03:53;27.20;54.30
14095;DHT22;18096;48.142;16.290;2022-08-19T15:06:21;27.20;53.80
14095;DHT22;18096;48.142;16.290;2022-08-19T15:08:47;27.20;53.50
14095;DHT22;18096;48.142;16.290;2022-08-19T15:11:16;27.20;53.30
14095;DHT22;18096;48.142;16.290;2022-08-19T15:13:43;27.20;53.30
14095;DHT22;18096;48.142;16.290;2022-08-19T15:16:10;27.20;53.60
14095;DHT22;18096;48.142;16.290;2022-08-19T15:18:36;27.20;54.10
14095;DHT22;18096;48.142;16.290;2022-08-19T15:21:02;27.20;54.10
14095;DHT22;18096;48.142;16.290;2022-08-19T15:23:28;27.20;54.00
14095;DHT22;18096;48.142;16.290;2022-08-19T15:25:54;27.10;54.40
14095;DHT22;18096;48.142;16.290;2022-08-19T15:28:25;27.10;54.40
14095;DHT22;18096;48.142;16.290;2022-08-19T15:30:51;27.10;54.70
14095;DHT22;18096;48.142;16.290;2022-08-19T15:33:17;27.10;55.10